Time;durP1;ratioP1;P1;durP2;ratioP2;P2;SDS_P1;SDS_P2;PMS_P1;PMS_P2;Temp;Humidity;BMP_temperature;BMP_pressure;BME280_temperature;BME280_humidity;BME280_pressure;Samples;Min_cycle;Max_cycle;Signal;HPM_P1;HPM_P2
2023/08/08 00:00:35;;;;;;;;;;;13.70;87.20;;;;;;4990699;28;19969;-80
2023/08/08 00:03:02;;;;;;;;;;;13.70;87.10;;;;;;4989809;28;19988;-79
2023/08/08 00:05:29;;;;;;;;;;;13.70;86.90;;;;;;4989795;28;19934;-79
2023/08/08 00:07:56;;;;;;;;;;;13.70;86.80;;;;;;4989040;28;19933;-79
2023/08/08 00:10:27;;;;;;;;;;;13.70;86.70;;;;;;4990358;28;19930;-78
2023/08/08 00:12:54;;;;;;;;;;;13.70;86.50;;;;;;4990331;28;19934;-79
2023/08/08 00:15:21;;;;;;;;;;;13.70;86.50;;;;;;4990221;28;19984;-79
2023/08/08 00:17:48;;;;;;;;;;;13.60;86.60;;;;;;4989195;28;19964;-79
2023/08/08 00:20:15;;;;;;;;;;;13.60;86.70;;;;;;4990241;28;19930;-78
2023/08/08 00:22:42;;;;;;;;;;;13.60;86.80;;;;;;4987968;28;19929;-79
2023/08/08 00:25:09;;;;;;;;;;;13.60;86.90;;;;;;4990189;28;19961;-81
2023/08/08 00:27:42;;;;;;;;;;;13.50;86.80;;;;;;4989090;28;20012;-70
2023/08/08 00:30:11;;;;;;;;;;;13.50;86.90;;;;;;4989428;28;20012;-70
2023/08/08 00:32:38;;;;;;;;;;;13.50;86.90;;;;;;4988045;28;19985;-71
2023/08/08 00:35:05;;;;;;;;;;;13.40;87.00;;;;;;4988715;28;20455;-70
2023/08/08 00:37:33;;;;;;;;;;;13.40;87.00;;;;;;4988165;28;19933;-71
2023/08/08 00:40:00;;;;;;;;;;;13.40;87.00;;;;;;4987433;28;19933;-72
2023/08/08 00:42:27;;;;;;;;;;;13.40;87.00;;;;;;4988626;28;20437;-70
2023/08/08 00:45:01;;;;;;;;;;;13.40;86.90;;;;;;4988695;28;19926;-71
2023/08/08 00:47:29;;;;;;;;;;;13.40;87.00;;;;;;4988105;28;19933;-70
2023/08/08 00:49:57;;;;;;;;;;;13.40;87.10;;;;;;4989685;28;20016;-70
2023/08/08 00:52:25;;;;;;;;;;;13.30;87.20;;;;;;4987354;28;19999;-70
2023/08/08 00:54:53;;;;;;;;;;;13.40;87.20;;;;;;5002733;28;19952;-71
2023/08/08 00:57:22;;;;;;;;;;;13.40;87.20;;;;;;4989191;28;19929;-70
2023/08/08 01:00:12;;;;;;;;;;;13.30;87.30;;;;;;4986749;28;19940;-70
2023/08/08 01:02:40;;;;;;;;;;;13.30;87.20;;;;;;4983844;28;19975;-70
2023/08/08 01:05:07;;;;;;;;;;;13.30;87.20;;;;;;4988627;28;19936;-71
2023/08/08 01:07:39;;;;;;;;;;;13.30;87.30;;;;;;4987332;28;19949;-70
2023/08/08 01:10:07;;;;;;;;;;;13.30;87.30;;;;;;4987865;28;19926;-70
2023/08/08 01:12:35;;;;;;;;;;;13.30;87.30;;;;;;4987008;28;19926;-70
2023/08/08 01:15:06;;;;;;;;;;;13.20;87.20;;;;;;4988741;28;20401;-71
2023/08/08 01:17:33;;;;;;;;;;;13.30;87.20;;;;;;4988085;28;19932;-71
2023/08/08 01:20:02;;;;;;;;;;;13.20;87.20;;;;;;4988937;28;19930;-71
2023/08/08 01:22:44;;;;;;;;;;;13.20;87.20;;;;;;5002711;28;19980;-71
2023/08/08 01:25:13;;;;;;;;;;;13.20;87.20;;;;;;4987729;28;20564;-70
2023/08/08 01:27:40;;;;;;;;;;;13.20;87.20;;;;;;4988496;28;20393;-70
2023/08/08 01:30:09;;;;;;;;;;;13.20;87.10;;;;;;4986069;28;19930;-71
2023/08/08 01:32:36;;;;;;;;;;;13.20;87.10;;;;;;4987425;28;19933;-71
2023/08/08 01:35:03;;;;;;;;;;;13.20;87.20;;;;;;4989245;28;19932;-71
2023/08/08 01:37:33;;;;;;;;;;;13.20;87.00;;;;;;4983043;28;19941;-69
2023/08/08 01:40:02;;;;;;;;;;;13.20;86.80;;;;;;4987521;28;19929;-69
2023/08/08 01:42:31;;;;;;;;;;;13.20;86.70;;;;;;4987636;28;19933;-70
2023/08/08 01:44:58;;;;;;;;;;;13.20;86.80;;;;;;4988022;28;20039;-68
2023/08/08 01:47:25;;;;;;;;;;;13.20;86.70;;;;;;4969494;28;20361;-68
2023/08/08 01:49:52;;;;;;;;;;;13.20;86.70;;;;;;4969391;28;19930;-70
2023/08/08 01:52:22;;;;;;;;;;;13.10;86.80;;;;;;4968219;28;19952;-68
2023/08/08 01:54:49;;;;;;;;;;;13.10;86.80;;;;;;4970782;28;19930;-70
2023/08/08 01:57:16;;;;;;;;;;;13.00;87.00;;;;;;4987244;28;19934;-70
2023/08/08 01:59:46;;;;;;;;;;;13.00;87.00;;;;;;4979896;28;19972;-69
2023/08/08 02:02:14;;;;;;;;;;;13.00;87.00;;;;;;4987748;28;20428;-68
2023/08/08 02:04:41;;;;;;;;;;;13.00;87.00;;;;;;4991487;28;19949;-70
2023/08/08 02:07:08;;;;;;;;;;;12.90;86.90;;;;;;4991618;28;20020;-70
2023/08/08 02:09:35;;;;;;;;;;;12.90;87.00;;;;;;4990137;28;19981;-70
2023/08/08 02:12:03;;;;;;;;;;;12.90;86.90;;;;;;4991621;28;19926;-69
2023/08/08 02:14:30;;;;;;;;;;;12.90;86.90;;;;;;5006446;28;19934;-69
2023/08/08 02:16:58;;;;;;;;;;;12.90;86.90;;;;;;4989085;28;20452;-69
2023/08/08 02:19:25;;;;;;;;;;;12.90;86.90;;;;;;4992155;28;20008;-71
2023/08/08 02:21:54;;;;;;;;;;;12.90;86.90;;;;;;4989721;28;20642;-70
2023/08/08 02:24:22;;;;;;;;;;;12.90;86.90;;;;;;4991505;28;19988;-69
2023/08/08 02:26:49;;;;;;;;;;;12.90;86.90;;;;;;4989256;28;19930;-69
2023/08/08 02:29:15;;;;;;;;;;;12.80;86.90;;;;;;4992616;28;19937;-68
2023/08/08 02:31:43;;;;;;;;;;;12.90;87.00;;;;;;4990686;28;19930;-69
2023/08/08 02:34:11;;;;;;;;;;;12.80;87.00;;;;;;4990738;28;19976;-69
2023/08/08 02:36:38;;;;;;;;;;;12.80;87.00;;;;;;4990774;28;19938;-69
2023/08/08 02:39:05;;;;;;;;;;;12.80;87.00;;;;;;4990193;28;19927;-70
2023/08/08 02:41:32;;;;;;;;;;;12.80;87.20;;;;;;4992070;28;19968;-68
2023/08/08 02:43:59;;;;;;;;;;;12.80;87.30;;;;;;5005555;28;20396;-69
2023/08/08 02:46:26;;;;;;;;;;;12.70;87.40;;;;;;4988895;28;19949;-70
2023/08/08 02:48:53;;;;;;;;;;;12.70;87.50;;;;;;4991504;28;19925;-71
2023/08/08 02:51:22;;;;;;;;;;;12.70;87.70;;;;;;4991054;28;19926;-71
2023/08/08 02:53:49;;;;;;;;;;;12.70;87.70;;;;;;4989606;28;19926;-71
2023/08/08 02:56:17;;;;;;;;;;;12.70;87.80;;;;;;5006361;28;19977;-71
2023/08/08 02:58:44;;;;;;;;;;;12.70;87.80;;;;;;4989598;28;20275;-71
2023/08/08 03:01:13;;;;;;;;;;;12.70;87.90;;;;;;4991215;28;19961;-72
2023/08/08 03:03:41;;;;;;;;;;;12.70;87.90;;;;;;4987977;28;20373;-71
2023/08/08 03:06:09;;;;;;;;;;;12.70;88.00;;;;;;4990004;28;19930;-71
2023/08/08 03:08:38;;;;;;;;;;;12.70;88.10;;;;;;4989580;28;19934;-72
2023/08/08 03:11:05;;;;;;;;;;;12.70;88.20;;;;;;4999681;28;19965;-71
2023/08/08 03:13:33;;;;;;;;;;;12.70;88.20;;;;;;4989246;28;19925;-72
2023/08/08 03:16:01;;;;;;;;;;;12.70;88.30;;;;;;4989255;28;19976;-72
2023/08/08 03:18:31;;;;;;;;;;;12.80;88.30;;;;;;5005597;28;19973;-72
2023/08/08 03:20:58;;;;;;;;;;;12.70;88.30;;;;;;5003850;28;19934;-72
2023/08/08 03:23:25;;;;;;;;;;;12.80;88.20;;;;;;5004928;28;19934;-71
2023/08/08 03:25:56;;;;;;;;;;;12.80;88.30;;;;;;4990562;28;19932;-72
2023/08/08 03:28:26;;;;;;;;;;;12.90;88.30;;;;;;4988551;28;20075;-70
2023/08/08 03:30:55;;;;;;;;;;;12.90;88.20;;;;;;4988975;28;20477;-71
2023/08/08 03:33:22;;;;;;;;;;;12.90;88.10;;;;;;4989276;28;19952;-71
2023/08/08 03:35:50;;;;;;;;;;;12.80;88.20;;;;;;4988302;28;20321;-71
2023/08/08 03:38:18;;;;;;;;;;;12.90;88.30;;;;;;5002855;28;19925;-72
2023/08/08 03:40:45;;;;;;;;;;;12.90;88.10;;;;;;4989451;28;20024;-71
2023/08/08 03:43:13;;;;;;;;;;;12.90;88.00;;;;;;4987794;28;20452;-71
2023/08/08 03:45:41;;;;;;;;;;;12.70;88.10;;;;;;4988190;28;19930;-71
2023/08/08 03:48:08;;;;;;;;;;;12.70;88.20;;;;;;4987716;28;19996;-71
2023/08/08 03:50:35;;;;;;;;;;;12.70;88.30;;;;;;4989958;28;19929;-71
2023/08/08 03:53:02;;;;;;;;;;;12.60;88.20;;;;;;4988836;28;20020;-71
2023/08/08 03:55:29;;;;;;;;;;;12.60;88.10;;;;;;4988010;28;19933;-73
2023/08/08 03:57:57;;;;;;;;;;;12.60;88.10;;;;;;4987826;28;19949;-71
2023/08/08 04:00:27;;;;;;;;;;;12.60;88.10;;;;;;4998722;28;20370;-69
2023/08/08 04:02:54;;;;;;;;;;;12.60;88.10;;;;;;4987320;28;19936;-71
2023/08/08 04:05:23;;;;;;;;;;;12.60;88.00;;;;;;4985402;28;19980;-70
2023/08/08 04:07:52;;;;;;;;;;;12.60;87.80;;;;;;4987051;28;20373;-62
2023/08/08 04:10:19;;;;;;;;;;;12.50;87.70;;;;;;4990350;28;19936;-62
2023/08/08 04:12:48;;;;;;;;;;;12.50;87.70;;;;;;4987565;28;20045;-63
2023/08/08 04:15:15;;;;;;;;;;;12.40;87.70;;;;;;4989572;28;19926;-62
2023/08/08 04:17:44;;;;;;;;;;;12.40;87.60;;;;;;4988075;28;19926;-71
2023/08/08 04:20:11;;;;;;;;;;;12.50;87.60;;;;;;4987446;28;20016;-71
2023/08/08 04:22:39;;;;;;;;;;;12.40;87.50;;;;;;4989955;28;19930;-71
2023/08/08 04:25:06;;;;;;;;;;;12.40;87.30;;;;;;4988874;28;19926;-71
2023/08/08 04:27:33;;;;;;;;;;;12.40;87.30;;;;;;4988972;28;19926;-71
2023/08/08 04:30:00;;;;;;;;;;;12.40;87.20;;;;;;4989114;28;19975;-72
2023/08/08 04:32:28;;;;;;;;;;;12.40;87.10;;;;;;4989677;28;19930;-71
2023/08/08 04:34:58;;;;;;;;;;;12.30;87.00;;;;;;4990270;28;19937;-71
2023/08/08 04:37:27;;;;;;;;;;;12.30;86.90;;;;;;4988812;28;20011;-70
2023/08/08 04:39:56;;;;;;;;;;;12.40;86.80;;;;;;4987566;28;19929;-71
2023/08/08 04:42:25;;;;;;;;;;;12.40;86.70;;;;;;4987918;28;20304;-71
2023/08/08 04:44:53;;;;;;;;;;;12.40;86.70;;;;;;4986602;28;19925;-71
2023/08/08 04:47:23;;;;;;;;;;;12.30;86.70;;;;;;4983202;28;19929;-72
2023/08/08 04:49:54;;;;;;;;;;;12.20;86.70;;;;;;4990060;28;20009;-72
2023/08/08 04:52:22;;;;;;;;;;;12.20;86.80;;;;;;4989490;28;20049;-72
2023/08/08 04:54:51;;;;;;;;;;;12.30;86.70;;;;;;4982253;28;20012;-71
2023/08/08 04:57:20;;;;;;;;;;;12.30;86.90;;;;;;4989372;28;19933;-71
2023/08/08 04:59:48;;;;;;;;;;;12.40;87.20;;;;;;4989438;28;19942;-69
2023/08/08 05:02:15;;;;;;;;;;;12.40;87.30;;;;;;4988430;28;19973;-71
2023/08/08 05:04:42;;;;;;;;;;;12.50;87.40;;;;;;4987589;28;19961;-70
2023/08/08 05:07:14;;;;;;;;;;;12.50;87.40;;;;;;4988097;28;19930;-71
2023/08/08 05:09:51;;;;;;;;;;;12.60;87.50;;;;;;4988159;28;19929;-71
2023/08/08 05:12:28;;;;;;;;;;;12.50;87.60;;;;;;4988806;28;19934;-71
2023/08/08 05:15:04;;;;;;;;;;;12.50;87.50;;;;;;4990316;28;20405;-71
2023/08/08 05:17:35;;;;;;;;;;;12.60;87.40;;;;;;4989221;28;19930;-71
2023/08/08 05:20:13;;;;;;;;;;;12.60;87.30;;;;;;4987123;28;19930;-72
2023/08/08 05:22:52;;;;;;;;;;;12.60;87.30;;;;;;4986789;28;19932;-72
2023/08/08 05:25:30;;;;;;;;;;;12.60;87.30;;;;;;4988923;28;20027;-71
2023/08/08 05:28:05;;;;;;;;;;;12.60;87.50;;;;;;4988253;28;19926;-62
2023/08/08 05:30:42;;;;;;;;;;;12.50;87.60;;;;;;4988226;28;19925;-62
2023/08/08 05:33:19;;;;;;;;;;;12.60;87.40;;;;;;4986071;28;19933;-62
2023/08/08 05:35:55;;;;;;;;;;;12.60;87.40;;;;;;4989136;28;19930;-62
2023/08/08 05:38:33;;;;;;;;;;;12.60;87.30;;;;;;4990490;28;19980;-63
2023/08/08 05:41:13;;;;;;;;;;;12.60;87.30;;;;;;4992839;28;19929;-63
2023/08/08 05:43:49;;;;;;;;;;;12.60;87.30;;;;;;4993200;28;20316;-61
2023/08/08 05:46:35;;;;;;;;;;;12.70;87.30;;;;;;4991505;28;19926;-62
2023/08/08 05:49:12;;;;;;;;;;;12.60;87.30;;;;;;4991257;28;19933;-62
2023/08/08 05:51:54;;;;;;;;;;;12.60;87.30;;;;;;4989262;28;20397;-62
2023/08/08 05:54:31;;;;;;;;;;;12.70;87.30;;;;;;4992446;28;19929;-62
2023/08/08 05:57:16;;;;;;;;;;;12.80;87.20;;;;;;4993768;28;19981;-61
2023/08/08 05:59:55;;;;;;;;;;;12.90;87.30;;;;;;4992691;28;19976;-63
2023/08/08 06:02:31;;;;;;;;;;;12.90;87.30;;;;;;4991740;28;19930;-62
2023/08/08 06:05:11;;;;;;;;;;;13.00;87.40;;;;;;4992238;28;20360;-63
2023/08/08 06:07:48;;;;;;;;;;;13.10;87.20;;;;;;4989237;28;19933;-63
2023/08/08 06:10:29;;;;;;;;;;;13.10;87.50;;;;;;4991780;28;20829;-62
2023/08/08 06:13:18;;;;;;;;;;;13.10;87.60;;;;;;4991781;28;19950;-62
2023/08/08 06:16:01;;;;;;;;;;;13.10;87.80;;;;;;4991410;28;19930;-62
2023/08/08 06:18:36;;;;;;;;;;;13.20;87.70;;;;;;4989446;28;20349;-63
2023/08/08 06:21:14;;;;;;;;;;;13.20;87.80;;;;;;4993049;28;19930;-62
2023/08/08 06:23:54;;;;;;;;;;;13.20;87.80;;;;;;4991920;28;19933;-62
2023/08/08 06:26:28;;;;;;;;;;;13.20;87.50;;;;;;4990046;28;20456;-62
2023/08/08 06:29:06;;;;;;;;;;;13.30;87.50;;;;;;4987538;28;20428;-62
2023/08/08 06:31:46;;;;;;;;;;;13.30;87.40;;;;;;4988826;28;19985;-62
2023/08/08 06:34:28;;;;;;;;;;;13.40;87.90;;;;;;4986632;28;20020;-62
2023/08/08 06:37:05;;;;;;;;;;;13.50;87.50;;;;;;4985283;28;19932;-70
2023/08/08 06:39:49;;;;;;;;;;;13.50;87.20;;;;;;4990788;28;19925;-69
2023/08/08 06:42:25;;;;;;;;;;;13.60;87.10;;;;;;4991802;28;19929;-69
2023/08/08 06:45:09;;;;;;;;;;;13.70;87.20;;;;;;4989188;28;20408;-69
2023/08/08 06:47:51;;;;;;;;;;;13.90;87.20;;;;;;4990715;28;20027;-69
2023/08/08 06:50:29;;;;;;;;;;;14.10;87.00;;;;;;4990246;28;19926;-69
2023/08/08 06:53:09;;;;;;;;;;;14.20;87.20;;;;;;4990218;28;20459;-71
2023/08/08 06:55:48;;;;;;;;;;;14.40;87.10;;;;;;4990490;28;19934;-68
2023/08/08 06:58:25;;;;;;;;;;;14.60;86.50;;;;;;4990699;28;19930;-69
2023/08/08 07:01:09;;;;;;;;;;;14.80;86.60;;;;;;4989997;28;19929;-69
2023/08/08 07:03:51;;;;;;;;;;;14.90;86.20;;;;;;4990554;28;19926;-68
2023/08/08 07:06:27;;;;;;;;;;;15.10;85.90;;;;;;4992125;28;19936;-70
2023/08/08 07:09:02;;;;;;;;;;;15.20;85.40;;;;;;4989309;28;19933;-68
2023/08/08 07:11:38;;;;;;;;;;;15.30;84.90;;;;;;4990135;28;19926;-69
2023/08/08 07:14:15;;;;;;;;;;;15.50;84.50;;;;;;4991494;28;19925;-70
2023/08/08 07:16:53;;;;;;;;;;;15.60;83.80;;;;;;4990326;28;19925;-69
2023/08/08 07:19:30;;;;;;;;;;;15.80;83.40;;;;;;4988925;28;20353;-68
2023/08/08 07:22:07;;;;;;;;;;;16.00;82.90;;;;;;4990798;28;19936;-68
2023/08/08 07:24:44;;;;;;;;;;;16.10;82.40;;;;;;4990417;28;19953;-68
2023/08/08 07:27:29;;;;;;;;;;;16.20;82.00;;;;;;4991009;28;19980;-69
2023/08/08 07:30:07;;;;;;;;;;;16.30;81.30;;;;;;4991699;28;20464;-68
2023/08/08 07:32:45;;;;;;;;;;;16.40;80.60;;;;;;4989968;28;19933;-69
2023/08/08 07:35:29;;;;;;;;;;;16.50;80.20;;;;;;4989903;28;19926;-69
2023/08/08 07:38:07;;;;;;;;;;;16.80;79.90;;;;;;4988044;28;20012;-69
2023/08/08 07:40:48;;;;;;;;;;;16.90;79.40;;;;;;4990045;28;20076;-68
2023/08/08 07:43:24;;;;;;;;;;;16.90;78.70;;;;;;4989665;28;19926;-69
2023/08/08 07:46:08;;;;;;;;;;;17.10;78.70;;;;;;4986927;28;19934;-69
2023/08/08 07:48:44;;;;;;;;;;;17.10;78.00;;;;;;4989750;28;19933;-72
2023/08/08 07:51:24;;;;;;;;;;;17.30;77.10;;;;;;4990405;28;19969;-71
2023/08/08 07:54:01;;;;;;;;;;;17.40;76.30;;;;;;4990450;28;19930;-72
2023/08/08 07:56:38;;;;;;;;;;;17.60;76.20;;;;;;4990256;28;20379;-72
2023/08/08 07:59:19;;;;;;;;;;;17.70;75.60;;;;;;4989990;28;20292;-72
2023/08/08 08:02:04;;;;;;;;;;;17.80;75.70;;;;;;4987951;28;19938;-71
2023/08/08 08:04:43;;;;;;;;;;;17.90;74.50;;;;;;4989677;28;19974;-72
2023/08/08 08:07:37;;;;;;;;;;;17.90;74.00;;;;;;4989218;28;20373;-71
2023/08/08 08:10:39;;;;;;;;;;;18.10;73.40;;;;;;4989922;28;20404;-70
2023/08/08 08:13:14;;;;;;;;;;;18.00;72.20;;;;;;4989557;28;19996;-71
2023/08/08 08:15:50;;;;;;;;;;;18.00;72.30;;;;;;4989228;28;19969;-71
2023/08/08 08:18:25;;;;;;;;;;;18.10;72.10;;;;;;4987963;28;20025;-70
2023/08/08 08:21:02;;;;;;;;;;;18.10;71.60;;;;;;4989438;28;19980;-70
2023/08/08 08:23:39;;;;;;;;;;;18.30;70.90;;;;;;5003258;28;20009;-71
2023/08/08 08:26:13;;;;;;;;;;;18.50;70.30;;;;;;4990691;28;19934;-70
2023/08/08 08:28:47;;;;;;;;;;;18.60;68.90;;;;;;4987783;28;19936;-71
2023/08/08 08:31:22;;;;;;;;;;;18.70;69.20;;;;;;4990050;28;19927;-70
2023/08/08 08:33:57;;;;;;;;;;;18.70;68.70;;;;;;4988879;28;19933;-71
2023/08/08 08:36:33;;;;;;;;;;;18.80;68.00;;;;;;4988456;28;19934;-70
2023/08/08 08:39:16;;;;;;;;;;;18.90;67.50;;;;;;4988392;28;20378;-71
2023/08/08 08:41:54;;;;;;;;;;;19.00;66.70;;;;;;4988828;28;19964;-72
2023/08/08 08:44:35;;;;;;;;;;;19.20;66.20;;;;;;4986067;28;20210;-73
2023/08/08 08:47:13;;;;;;;;;;;19.30;66.30;;;;;;4989565;28;19926;-71
2023/08/08 08:49:53;;;;;;;;;;;19.40;66.00;;;;;;4986579;28;19942;-71
2023/08/08 08:52:50;;;;;;;;;;;19.60;66.10;;;;;;4986609;28;19933;-71
2023/08/08 08:55:45;;;;;;;;;;;19.50;65.60;;;;;;4987970;28;19936;-70
2023/08/08 08:58:32;;;;;;;;;;;19.40;65.20;;;;;;4987671;28;19930;-71
2023/08/08 09:01:10;;;;;;;;;;;19.40;65.20;;;;;;4988744;28;20382;-71
2023/08/08 09:03:49;;;;;;;;;;;19.60;65.30;;;;;;4988326;28;19933;-71
2023/08/08 09:06:28;;;;;;;;;;;19.60;64.90;;;;;;4979576;28;19937;-70
2023/08/08 09:09:05;;;;;;;;;;;19.90;64.70;;;;;;4988331;28;20401;-71
2023/08/08 09:11:43;;;;;;;;;;;19.90;64.60;;;;;;4988629;28;19941;-69
2023/08/08 09:14:25;;;;;;;;;;;20.00;63.40;;;;;;4989910;28;19965;-71
2023/08/08 09:17:10;;;;;;;;;;;20.00;62.50;;;;;;4988344;28;20297;-71
2023/08/08 09:19:56;;;;;;;;;;;20.00;62.30;;;;;;4989345;28;19937;-70
2023/08/08 09:22:33;;;;;;;;;;;20.00;61.30;;;;;;4988386;28;19930;-70
2023/08/08 09:25:24;;;;;;;;;;;20.00;61.20;;;;;;4988787;28;19958;-72
2023/08/08 09:28:05;;;;;;;;;;;19.90;61.60;;;;;;4988356;28;19948;-70
2023/08/08 09:30:44;;;;;;;;;;;19.80;61.60;;;;;;4988757;28;19931;-69
2023/08/08 09:33:19;;;;;;;;;;;19.70;62.00;;;;;;4987944;28;19929;-69
2023/08/08 09:36:03;;;;;;;;;;;19.70;62.70;;;;;;4989422;28;19929;-68
2023/08/08 09:38:41;;;;;;;;;;;19.80;63.30;;;;;;4989271;28;20016;-70
2023/08/08 09:41:43;;;;;;;;;;;19.70;62.70;;;;;;4987657;28;19930;-69
2023/08/08 09:44:47;;;;;;;;;;;19.70;63.00;;;;;;4988079;28;19926;-69
2023/08/08 09:47:23;;;;;;;;;;;19.70;63.00;;;;;;4989668;28;19930;-69
2023/08/08 09:50:00;;;;;;;;;;;20.00;62.30;;;;;;4989039;28;19992;-69
2023/08/08 09:52:35;;;;;;;;;;;20.20;62.00;;;;;;4988279;28;19926;-69
2023/08/08 09:55:12;;;;;;;;;;;20.50;61.60;;;;;;4989249;28;19930;-69
2023/08/08 09:58:02;;;;;;;;;;;20.60;60.60;;;;;;4986996;28;20416;-70
2023/08/08 10:06:58;;;;;;;;;;;20.50;60.30;;;;;;4976073;28;19984;-68
2023/08/08 10:09:34;;;;;;;;;;;20.50;60.90;;;;;;4987669;28;19934;-70
2023/08/08 10:12:10;;;;;;;;;;;20.50;60.20;;;;;;4985590;28;19935;-70
2023/08/08 10:14:48;;;;;;;;;;;20.50;60.50;;;;;;4985535;28;20004;-70
2023/08/08 10:17:31;;;;;;;;;;;20.50;60.20;;;;;;4985774;28;19996;-69
2023/08/08 10:20:17;;;;;;;;;;;20.60;59.80;;;;;;4987985;28;19926;-70
2023/08/08 10:22:58;;;;;;;;;;;20.60;59.50;;;;;;4987606;28;20346;-69
2023/08/08 10:25:36;;;;;;;;;;;20.70;60.00;;;;;;4990635;28;19937;-69
2023/08/08 10:28:20;;;;;;;;;;;20.80;60.30;;;;;;4988744;28;20380;-68
2023/08/08 10:31:04;;;;;;;;;;;21.00;60.20;;;;;;4992167;28;20052;-69
2023/08/08 10:33:50;;;;;;;;;;;21.10;59.50;;;;;;4990665;28;20080;-70
2023/08/08 10:36:28;;;;;;;;;;;21.00;59.40;;;;;;4991837;28;20861;-69
2023/08/08 10:39:08;;;;;;;;;;;21.00;58.90;;;;;;4990762;28;20020;-71
2023/08/08 10:41:52;;;;;;;;;;;20.90;58.90;;;;;;4989612;28;20019;-70
2023/08/08 10:44:37;;;;;;;;;;;21.00;58.50;;;;;;4991272;28;20614;-71
2023/08/08 10:47:16;;;;;;;;;;;21.00;57.80;;;;;;4990825;28;20016;-70
2023/08/08 10:50:09;;;;;;;;;;;21.10;58.30;;;;;;4990932;28;19933;-71
2023/08/08 10:52:57;;;;;;;;;;;21.10;57.80;;;;;;4988745;28;20004;-71
2023/08/08 10:55:44;;;;;;;;;;;20.90;57.50;;;;;;4981738;28;19979;-71
2023/08/08 10:58:28;;;;;;;;;;;20.90;58.00;;;;;;4987241;28;19934;-71
2023/08/08 11:01:10;;;;;;;;;;;21.00;58.30;;;;;;4990259;28;19932;-71
2023/08/08 11:03:49;;;;;;;;;;;21.10;58.50;;;;;;4990362;28;19933;-71
2023/08/08 11:06:32;;;;;;;;;;;21.30;58.00;;;;;;4989302;28;20288;-71
2023/08/08 11:09:10;;;;;;;;;;;21.20;57.40;;;;;;4990404;28;19945;-72
2023/08/08 11:11:47;;;;;;;;;;;21.10;56.80;;;;;;4990332;28;19925;-71
2023/08/08 11:14:26;;;;;;;;;;;21.10;57.40;;;;;;4989805;28;19932;-71
2023/08/08 11:17:02;;;;;;;;;;;21.10;57.80;;;;;;4989986;28;19941;-70
2023/08/08 11:19:43;;;;;;;;;;;21.10;57.10;;;;;;4990077;28;19925;-71
2023/08/08 11:22:27;;;;;;;;;;;21.10;57.30;;;;;;4990108;28;20024;-72
2023/08/08 11:25:03;;;;;;;;;;;21.10;57.50;;;;;;4990399;28;19930;-71
2023/08/08 11:27:50;;;;;;;;;;;21.20;57.30;;;;;;4990094;28;19976;-71
2023/08/08 11:30:55;;;;;;;;;;;21.20;56.90;;;;;;4990871;28;20301;-71
2023/08/08 11:36:55;;;;;;;;;;;20.90;57.10;;;;;;4986984;28;19937;-72
2023/08/08 11:39:35;;;;;;;;;;;20.90;57.40;;;;;;4989373;28;19930;-72
2023/08/08 11:42:10;;;;;;;;;;;21.00;56.40;;;;;;4977343;28;19936;-73
2023/08/08 11:44:48;;;;;;;;;;;20.90;56.70;;;;;;4973195;28;19926;-72
2023/08/08 11:47:31;;;;;;;;;;;21.00;56.80;;;;;;4988935;28;20020;-70
2023/08/08 11:50:13;;;;;;;;;;;21.10;57.00;;;;;;4983537;28;20002;-71
2023/08/08 11:52:50;;;;;;;;;;;21.20;56.80;;;;;;4988879;28;19933;-70
2023/08/08 11:55:33;;;;;;;;;;;21.30;56.70;;;;;;4990132;28;20388;-71
2023/08/08 11:58:09;;;;;;;;;;;21.40;56.40;;;;;;4989495;28;20285;-71
2023/08/08 12:00:50;;;;;;;;;;;21.60;57.20;;;;;;4984442;28;19933;-70
2023/08/08 12:06:18;;;;;;;;;;;21.60;56.70;;;;;;4988042;28;19962;-70
2023/08/08 12:08:56;;;;;;;;;;;21.60;57.20;;;;;;4989032;28;19937;-70
2023/08/08 12:11:39;;;;;;;;;;;21.50;56.00;;;;;;5003271;28;20312;-69
2023/08/08 12:14:13;;;;;;;;;;;21.30;55.20;;;;;;4987989;28;20020;-70
2023/08/08 12:16:49;;;;;;;;;;;21.20;54.50;;;;;;4985163;28;19929;-72
2023/08/08 12:19:27;;;;;;;;;;;21.20;54.90;;;;;;4989465;28;20031;-70
2023/08/08 12:22:03;;;;;;;;;;;21.30;54.80;;;;;;4988704;28;19930;-70
2023/08/08 12:24:38;;;;;;;;;;;21.20;54.90;;;;;;4988568;28;20028;-72
2023/08/08 12:27:18;;;;;;;;;;;21.10;54.70;;;;;;4990675;28;19926;-70
2023/08/08 12:29:57;;;;;;;;;;;21.10;54.70;;;;;;4990661;28;20389;-70
2023/08/08 12:32:33;;;;;;;;;;;21.10;54.70;;;;;;4987863;28;19930;-70
2023/08/08 12:35:17;;;;;;;;;;;21.10;54.20;;;;;;4989707;28;19976;-70
2023/08/08 12:37:54;;;;;;;;;;;21.20;53.70;;;;;;4985350;28;19942;-69
2023/08/08 12:40:29;;;;;;;;;;;21.30;53.50;;;;;;4988039;28;19929;-71
2023/08/08 12:43:17;;;;;;;;;;;21.30;53.10;;;;;;4987746;28;19954;-69
2023/08/08 12:45:50;;;;;;;;;;;21.30;53.00;;;;;;4988596;28;19957;-70
2023/08/08 12:48:25;;;;;;;;;;;21.60;53.30;;;;;;4989558;28;20026;-71
2023/08/08 12:51:03;;;;;;;;;;;21.60;52.70;;;;;;4990471;28;19940;-71
2023/08/08 12:53:40;;;;;;;;;;;21.60;52.40;;;;;;4987623;28;19926;-69
2023/08/08 12:56:23;;;;;;;;;;;21.70;52.20;;;;;;4989449;28;19930;-70
2023/08/08 12:59:03;;;;;;;;;;;21.80;52.10;;;;;;4988124;28;19933;-71
2023/08/08 13:01:38;;;;;;;;;;;21.80;51.70;;;;;;4987988;28;19961;-71
2023/08/08 13:04:07;;;;;;;;;;;21.80;50.90;;;;;;4985238;28;19929;-71
2023/08/08 13:06:34;;;;;;;;;;;21.90;50.60;;;;;;4987815;28;20199;-72
2023/08/08 13:09:01;;;;;;;;;;;21.90;49.80;;;;;;5005011;28;19973;-72
2023/08/08 13:11:28;;;;;;;;;;;21.90;49.80;;;;;;4988801;28;19932;-71
2023/08/08 13:13:59;;;;;;;;;;;22.00;49.70;;;;;;4988636;28;19953;-72
2023/08/08 13:16:26;;;;;;;;;;;22.00;49.40;;;;;;4983810;28;19941;-69
2023/08/08 13:18:58;;;;;;;;;;;22.00;49.70;;;;;;4985679;28;19926;-72
2023/08/08 13:21:36;;;;;;;;;;;22.00;49.70;;;;;;4983035;28;20016;-71
2023/08/08 13:24:09;;;;;;;;;;;22.00;49.80;;;;;;4988253;28;20303;-73
2023/08/08 13:26:44;;;;;;;;;;;21.90;50.10;;;;;;4985838;28;20291;-73
2023/08/08 13:29:23;;;;;;;;;;;21.90;50.50;;;;;;4984975;28;20154;-72
2023/08/08 13:32:04;;;;;;;;;;;21.90;51.10;;;;;;4987631;28;19933;-72
2023/08/08 13:34:41;;;;;;;;;;;21.90;51.80;;;;;;4984683;28;19934;-72
2023/08/08 13:37:18;;;;;;;;;;;21.70;51.70;;;;;;5000585;28;19926;-72
2023/08/08 13:39:56;;;;;;;;;;;21.50;52.90;;;;;;4988206;28;19936;-72
2023/08/08 13:42:34;;;;;;;;;;;21.30;51.40;;;;;;4988758;28;20013;-72
2023/08/08 13:45:16;;;;;;;;;;;21.20;51.50;;;;;;4990540;28;19973;-72
2023/08/08 13:47:51;;;;;;;;;;;21.10;51.50;;;;;;4988332;28;20020;-71
2023/08/08 13:53:12;;;;;;;;;;;20.80;51.90;;;;;;4987173;28;20389;-72
2023/08/08 13:55:48;;;;;;;;;;;20.60;52.30;;;;;;4988318;28;19934;-72
2023/08/08 13:58:26;;;;;;;;;;;20.60;52.70;;;;;;4989666;28;20370;-73
2023/08/08 14:01:02;;;;;;;;;;;20.60;52.80;;;;;;4991960;28;19934;-72
2023/08/08 14:03:40;;;;;;;;;;;20.60;53.10;;;;;;4992048;28;19926;-71
2023/08/08 14:06:17;;;;;;;;;;;20.50;53.70;;;;;;4993679;28;19926;-71
2023/08/08 14:08:48;;;;;;;;;;;20.50;54.00;;;;;;4991971;28;19933;-67
2023/08/08 14:11:15;;;;;;;;;;;20.50;53.80;;;;;;4991357;28;19969;-67
2023/08/08 14:13:42;;;;;;;;;;;20.40;54.70;;;;;;4990834;28;19930;-69
2023/08/08 14:16:10;;;;;;;;;;;20.50;54.90;;;;;;4991828;28;19930;-68
2023/08/08 14:18:38;;;;;;;;;;;20.40;54.50;;;;;;4991383;28;19953;-67
2023/08/08 14:21:05;;;;;;;;;;;20.50;55.70;;;;;;4992247;28;20278;-67
2023/08/08 14:23:32;;;;;;;;;;;20.50;55.10;;;;;;4991927;28;20000;-67
2023/08/08 14:25:59;;;;;;;;;;;20.60;55.10;;;;;;4991683;28;19961;-67
2023/08/08 14:28:26;;;;;;;;;;;20.70;54.70;;;;;;4990131;28;19977;-67
2023/08/08 14:30:54;;;;;;;;;;;20.80;54.90;;;;;;4992372;28;19965;-67
2023/08/08 14:33:22;;;;;;;;;;;20.70;54.20;;;;;;4990551;28;20013;-67
2023/08/08 14:35:50;;;;;;;;;;;20.70;55.00;;;;;;4991535;28;19926;-67
2023/08/08 14:38:17;;;;;;;;;;;20.70;54.60;;;;;;4991247;28;20015;-68
2023/08/08 14:40:44;;;;;;;;;;;20.60;55.30;;;;;;4990916;28;19953;-68
2023/08/08 14:43:11;;;;;;;;;;;20.60;55.50;;;;;;4991403;28;19932;-67
2023/08/08 14:45:39;;;;;;;;;;;20.60;55.30;;;;;;4991571;28;20000;-68
2023/08/08 14:48:06;;;;;;;;;;;20.50;56.20;;;;;;4990935;28;19925;-67
2023/08/08 14:50:35;;;;;;;;;;;20.50;55.80;;;;;;4990979;28;19925;-67
2023/08/08 14:53:02;;;;;;;;;;;20.40;57.00;;;;;;4991135;28;20013;-68
2023/08/08 14:55:29;;;;;;;;;;;20.40;56.70;;;;;;4990827;28;20321;-68
2023/08/08 14:57:57;;;;;;;;;;;20.30;56.00;;;;;;4990641;28;19956;-67
2023/08/08 15:00:24;;;;;;;;;;;20.30;56.00;;;;;;4988898;28;19973;-68
2023/08/08 15:02:51;;;;;;;;;;;20.20;55.70;;;;;;4990759;28;19934;-68
2023/08/08 15:05:19;;;;;;;;;;;20.10;56.60;;;;;;4989624;28;20385;-67
2023/08/08 15:07:55;;;;;;;;;;;20.10;55.90;;;;;;4990151;28;19933;-68
2023/08/08 15:10:32;;;;;;;;;;;20.00;56.20;;;;;;4987500;28;19973;-68
2023/08/08 15:13:09;;;;;;;;;;;19.90;56.60;;;;;;4989982;28;19926;-68